createdAt,value
2024-01-30T00:00:40.746Z,8.49
2024-01-30T00:03:02.596Z,8.46
2024-01-30T00:05:24.341Z,8.43
2024-01-30T00:07:46.266Z,8.41
2024-01-30T00:10:08.479Z,8.38
2024-01-30T00:12:30.331Z,8.34
2024-01-30T00:14:55.073Z,8.31
2024-01-30T00:17:17.123Z,8.28
2024-01-30T00:19:39.011Z,8.25
2024-01-30T00:22:00.906Z,8.20
2024-01-30T00:24:22.717Z,8.18
2024-01-30T00:26:44.520Z,8.14
2024-01-30T00:29:06.308Z,8.14
2024-01-30T00:31:28.140Z,8.11
2024-01-30T00:33:49.931Z,8.10
2024-01-30T00:36:12.672Z,8.07
2024-01-30T00:38:34.437Z,8.05
2024-01-30T00:40:56.155Z,8.03
2024-01-30T00:43:18.016Z,7.99
2024-01-30T00:45:39.859Z,7.96
2024-01-30T00:48:01.714Z,7.93
2024-01-30T00:50:23.662Z,7.90
2024-01-30T00:52:46.542Z,7.88
2024-01-30T00:55:08.598Z,7.88
2024-01-30T00:57:30.415Z,7.89
2024-01-30T00:59:52.172Z,7.89
2024-01-30T01:02:14.954Z,7.90
2024-01-30T01:04:36.914Z,7.89
2024-01-30T01:06:58.779Z,7.88
2024-01-30T01:09:20.736Z,7.89
2024-01-30T01:11:42.483Z,7.87
2024-01-30T01:14:04.396Z,7.87
2024-01-30T01:16:26.230Z,7.89
2024-01-30T01:18:48.137Z,7.88
2024-01-30T01:21:10.064Z,7.86
2024-01-30T01:23:31.817Z,7.85
2024-01-30T01:25:53.533Z,7.84
2024-01-30T01:28:15.398Z,7.84
2024-01-30T01:30:38.092Z,7.84
2024-01-30T01:33:02.390Z,7.85
2024-01-30T01:35:28.769Z,7.86
2024-01-30T01:37:55.752Z,7.86
2024-01-30T01:40:17.751Z,7.85
2024-01-30T01:42:39.619Z,7.85
2024-01-30T01:45:01.408Z,7.85
2024-01-30T01:47:23.465Z,7.82
2024-01-30T01:49:45.624Z,7.82
2024-01-30T01:52:08.165Z,7.81
2024-01-30T01:54:34.057Z,7.81
2024-01-30T01:56:56.112Z,7.81
2024-01-30T01:59:19.204Z,7.81
2024-01-30T02:01:42.831Z,7.81
2024-01-30T02:04:05.819Z,7.82
2024-01-30T02:06:28.794Z,7.80
2024-01-30T02:08:50.600Z,7.79
2024-01-30T02:11:12.651Z,7.79
2024-01-30T02:13:34.323Z,7.78
2024-01-30T02:15:56.395Z,7.79
2024-01-30T02:18:18.631Z,7.79
2024-01-30T02:20:40.589Z,7.79
2024-01-30T02:23:03.485Z,7.81
2024-01-30T02:25:40.287Z,7.81
2024-01-30T02:28:02.092Z,7.83
2024-01-30T02:30:23.959Z,7.82
2024-01-30T02:32:45.789Z,7.83
2024-01-30T02:35:07.809Z,7.83
2024-01-30T02:37:29.608Z,7.85
2024-01-30T02:39:51.576Z,7.86
2024-01-30T02:42:13.366Z,7.86
2024-01-30T02:44:35.216Z,7.88
2024-01-30T02:46:57.137Z,7.88
2024-01-30T02:49:18.992Z,7.88
2024-01-30T02:51:40.845Z,7.89
2024-01-30T02:54:02.601Z,7.91
2024-01-30T02:56:24.313Z,7.92
2024-01-30T02:58:46.037Z,7.95
2024-01-30T03:01:08.462Z,7.96
2024-01-30T03:03:30.318Z,7.98
2024-01-30T03:05:52.114Z,8.02
2024-01-30T03:08:13.983Z,8.03
2024-01-30T03:10:35.948Z,8.02
2024-01-30T03:12:58.530Z,8.03
2024-01-30T03:15:20.226Z,8.04
2024-01-30T03:17:42.325Z,8.05
2024-01-30T03:20:07.270Z,8.06
2024-01-30T03:22:29.045Z,8.08
2024-01-30T03:24:50.884Z,8.09
2024-01-30T03:27:12.811Z,8.09
2024-01-30T03:29:34.598Z,8.10
2024-01-30T03:31:56.337Z,8.09
2024-01-30T03:34:18.988Z,8.09
2024-01-30T03:36:41.115Z,8.10
2024-01-30T03:39:03.200Z,8.10
2024-01-30T03:41:24.964Z,8.12
2024-01-30T03:43:47.817Z,8.15
2024-01-30T03:46:09.701Z,8.14
2024-01-30T03:48:32.038Z,8.14
2024-01-30T03:50:53.798Z,8.14
2024-01-30T03:53:15.586Z,8.13
2024-01-30T03:55:37.374Z,8.13
2024-01-30T03:57:59.226Z,8.11
2024-01-30T04:00:21.061Z,8.12
2024-01-30T04:02:42.806Z,8.13
2024-01-30T04:05:05.039Z,8.10
2024-01-30T04:07:26.900Z,8.09
2024-01-30T04:09:48.627Z,8.09
2024-01-30T04:12:10.407Z,8.08
2024-01-30T04:14:32.245Z,8.06
2024-01-30T04:16:53.951Z,8.03
2024-01-30T04:19:15.910Z,8.03
2024-01-30T04:21:37.852Z,8.02
2024-01-30T04:23:59.564Z,8.03
2024-01-30T04:26:21.570Z,8.03
2024-01-30T04:28:45.480Z,8.05
2024-01-30T04:31:07.261Z,8.09
2024-01-30T04:33:29.117Z,8.10
2024-01-30T04:35:51.081Z,8.14
2024-01-30T04:38:12.910Z,8.18
2024-01-30T04:40:34.757Z,8.20
2024-01-30T04:42:56.561Z,8.23
2024-01-30T04:45:18.331Z,8.25
2024-01-30T04:47:40.144Z,8.25
2024-01-30T04:50:03.709Z,8.25
2024-01-30T04:52:25.647Z,8.25
2024-01-30T04:54:47.386Z,8.27
2024-01-30T04:57:10.700Z,8.30
2024-01-30T04:59:32.386Z,8.32
2024-01-30T05:01:54.363Z,8.35
2024-01-30T05:04:17.559Z,8.42
2024-01-30T05:06:39.606Z,8.45
2024-01-30T05:09:01.329Z,8.50
2024-01-30T05:11:23.175Z,8.52
2024-01-30T05:13:44.865Z,8.54
2024-01-30T05:16:06.850Z,8.59
2024-01-30T05:18:28.744Z,8.62
2024-01-30T05:20:53.484Z,8.67
2024-01-30T05:23:15.178Z,8.68
2024-01-30T05:25:36.941Z,8.72
2024-01-30T05:27:58.792Z,8.79
2024-01-30T05:30:20.652Z,8.85
2024-01-30T05:32:42.480Z,8.89
2024-01-30T05:35:05.166Z,8.95
2024-01-30T05:37:26.906Z,8.99
2024-01-30T05:39:48.602Z,9.04
2024-01-30T05:42:11.202Z,9.09
2024-01-30T05:44:32.898Z,9.13
2024-01-30T05:46:54.810Z,9.20
2024-01-30T05:49:16.662Z,9.26
2024-01-30T05:51:38.435Z,9.27
2024-01-30T05:54:00.316Z,9.31
2024-01-30T05:56:22.068Z,9.35
2024-01-30T05:58:44.500Z,9.37
2024-01-30T06:01:09.998Z,9.39
2024-01-30T06:03:31.765Z,9.38
2024-01-30T06:05:53.591Z,9.41
2024-01-30T06:08:15.397Z,9.42
2024-01-30T06:10:37.262Z,9.43
2024-01-30T06:12:59.059Z,9.41
2024-01-30T06:15:20.770Z,9.42
2024-01-30T06:17:42.541Z,9.42
2024-01-30T06:20:05.359Z,9.48
2024-01-30T06:22:27.107Z,9.51
2024-01-30T06:24:51.659Z,9.53
2024-01-30T06:27:16.402Z,9.57
2024-01-30T06:29:38.108Z,9.57
2024-01-30T06:32:00.631Z,9.59
2024-01-30T06:34:22.920Z,9.60
2024-01-30T06:36:44.688Z,9.61
2024-01-30T06:39:06.740Z,9.62
2024-01-30T06:41:28.488Z,9.61
2024-01-30T06:43:51.110Z,9.61
2024-01-30T06:46:14.077Z,9.61
2024-01-30T06:48:35.897Z,9.60
2024-01-30T06:50:58.785Z,9.60
2024-01-30T06:53:20.884Z,9.61
2024-01-30T06:55:42.691Z,9.62
2024-01-30T06:58:04.776Z,9.62
2024-01-30T07:00:26.467Z,9.61
2024-01-30T07:02:48.137Z,9.61
2024-01-30T07:05:11.175Z,9.61
2024-01-30T07:07:33.063Z,9.62
2024-01-30T07:09:57.904Z,9.61
2024-01-30T07:12:19.929Z,9.60
2024-01-30T07:14:41.751Z,9.60
2024-01-30T07:17:03.590Z,9.62
2024-01-30T07:19:25.783Z,9.62
2024-01-30T07:21:47.547Z,9.61
2024-01-30T07:24:09.415Z,9.61
2024-01-30T07:26:31.124Z,9.59
2024-01-30T07:28:52.968Z,9.57
2024-01-30T07:31:14.843Z,9.55
2024-01-30T07:33:37.047Z,9.55
2024-01-30T07:35:58.952Z,9.58
2024-01-30T07:38:21.295Z,9.56
2024-01-30T07:40:43.202Z,9.58
2024-01-30T07:43:05.155Z,9.54
2024-01-30T07:45:28.770Z,9.56
2024-01-30T07:47:51.443Z,9.57
2024-01-30T07:50:13.869Z,9.60
2024-01-30T07:52:35.767Z,9.60
2024-01-30T07:54:57.749Z,9.63
2024-01-30T07:57:19.799Z,9.66
2024-01-30T07:59:45.477Z,9.68
2024-01-30T08:02:07.444Z,9.72
2024-01-30T08:04:29.463Z,9.73
2024-01-30T08:06:51.427Z,9.77
2024-01-30T08:09:13.514Z,9.80
2024-01-30T08:11:35.347Z,9.80
2024-01-30T08:13:57.128Z,9.84
2024-01-30T08:16:19.284Z,9.85
2024-01-30T08:18:41.204Z,9.90
2024-01-30T08:21:03.088Z,9.92
2024-01-30T08:23:24.961Z,10.00
2024-01-30T08:25:46.814Z,10.07
2024-01-30T08:28:09.306Z,10.15
2024-01-30T08:30:31.230Z,10.19
2024-01-30T08:32:53.086Z,10.23
2024-01-30T08:35:17.254Z,10.25
2024-01-30T08:37:39.173Z,10.31
2024-01-30T08:40:01.221Z,10.36
2024-01-30T08:42:24.067Z,10.39
2024-01-30T08:44:46.150Z,10.42
2024-01-30T08:47:07.920Z,10.46
2024-01-30T08:49:29.790Z,10.49
2024-01-30T08:51:52.005Z,10.50
2024-01-30T08:54:13.903Z,10.57
2024-01-30T08:56:36.434Z,10.61
2024-01-30T08:58:58.453Z,10.62
2024-01-30T09:01:20.357Z,10.66
2024-01-30T09:03:44.549Z,10.69
2024-01-30T09:06:13.060Z,10.74
2024-01-30T09:08:34.892Z,10.76
2024-01-30T09:10:57.241Z,10.80
2024-01-30T09:13:19.457Z,10.85
2024-01-30T09:15:41.598Z,10.89
2024-01-30T09:18:04.587Z,10.89
2024-01-30T09:20:26.409Z,10.92
2024-01-30T09:22:48.203Z,10.93
2024-01-30T09:25:11.165Z,10.97
2024-01-30T09:27:33.358Z,11.00
2024-01-30T09:29:55.628Z,11.04
2024-01-30T09:32:18.913Z,11.08
2024-01-30T09:34:41.120Z,11.07
2024-01-30T09:37:04.381Z,11.12
2024-01-30T09:39:26.366Z,11.17
2024-01-30T09:42:07.605Z,11.21
2024-01-30T09:44:31.889Z,11.22
2024-01-30T09:46:53.913Z,11.25
2024-01-30T09:49:17.692Z,11.30
2024-01-30T09:51:41.012Z,11.33
2024-01-30T09:54:04.216Z,11.35
2024-01-30T09:56:27.327Z,11.38
2024-01-30T09:58:49.794Z,11.40
2024-01-30T10:01:12.075Z,11.47
2024-01-30T10:03:34.081Z,11.48
2024-01-30T10:05:57.283Z,11.51
2024-01-30T10:08:22.444Z,11.50
2024-01-30T10:10:48.261Z,11.56
2024-01-30T10:13:11.699Z,11.57
2024-01-30T10:15:36.348Z,11.61
2024-01-30T10:17:58.741Z,11.64
2024-01-30T10:20:21.061Z,11.71
2024-01-30T10:22:46.879Z,11.72
2024-01-30T10:25:09.090Z,11.74
2024-01-30T10:27:31.761Z,11.78
2024-01-30T10:29:53.845Z,11.82
2024-01-30T10:32:16.504Z,11.86
2024-01-30T10:34:38.428Z,11.91
2024-01-30T10:37:16.709Z,11.96
2024-01-30T10:39:41.100Z,12.01
2024-01-30T10:42:07.365Z,12.05
2024-01-30T10:44:40.330Z,12.06
2024-01-30T10:47:09.449Z,12.07
2024-01-30T10:49:32.453Z,12.11
2024-01-30T10:51:56.988Z,12.09
2024-01-30T10:54:20.740Z,12.13
2024-01-30T10:56:44.066Z,12.19
2024-01-30T10:59:07.456Z,12.25
2024-01-30T11:01:31.764Z,12.34
2024-01-30T11:03:55.250Z,12.39
2024-01-30T11:06:19.575Z,12.39
2024-01-30T11:08:41.646Z,12.46
2024-01-30T11:11:11.080Z,12.50
2024-01-30T11:13:33.353Z,12.50
2024-01-30T11:15:55.445Z,12.52
2024-01-30T11:18:29.897Z,12.60
2024-01-30T11:20:51.726Z,12.64
2024-01-30T11:23:13.557Z,12.72
2024-01-30T11:25:35.771Z,12.71
2024-01-30T11:27:57.881Z,12.77
2024-01-30T11:30:31.617Z,12.81
2024-01-30T11:33:03.825Z,12.84
2024-01-30T11:35:26.581Z,12.84
2024-01-30T11:37:50.598Z,12.85
2024-01-30T11:40:12.611Z,12.84
2024-01-30T11:42:37.972Z,12.82
2024-01-30T11:45:03.778Z,12.84
2024-01-30T11:47:25.700Z,12.87
2024-01-30T11:49:47.558Z,12.83
2024-01-30T11:52:09.432Z,12.87
2024-01-30T11:54:31.309Z,12.92
2024-01-30T11:56:53.590Z,12.93
2024-01-30T11:59:15.854Z,12.99
2024-01-30T12:01:38.244Z,13.06
2024-01-30T12:04:01.048Z,13.17
2024-01-30T12:06:22.875Z,13.22
2024-01-30T12:09:02.244Z,13.23
2024-01-30T12:11:24.021Z,13.22
2024-01-30T12:13:46.378Z,13.19
2024-01-30T12:16:08.524Z,13.22
2024-01-30T12:18:30.412Z,13.22
2024-01-30T12:21:03.785Z,13.24
2024-01-30T12:23:26.957Z,13.14
2024-01-30T12:25:48.791Z,13.16
2024-01-30T12:28:12.735Z,13.23
2024-01-30T12:30:36.350Z,13.19
2024-01-30T12:32:58.179Z,13.22
2024-01-30T12:35:22.294Z,13.23
2024-01-30T12:37:48.198Z,13.21
2024-01-30T12:40:11.032Z,13.24
2024-01-30T12:42:33.029Z,13.26
2024-01-30T12:44:54.901Z,13.22
2024-01-30T12:47:17.509Z,13.22
2024-01-30T12:49:39.325Z,13.20
2024-01-30T12:52:01.462Z,13.21
2024-01-30T12:54:24.608Z,13.35
2024-01-30T12:56:46.393Z,13.44
2024-01-30T12:59:08.215Z,13.45
2024-01-30T13:01:30.085Z,13.59
2024-01-30T13:03:52.094Z,13.71
2024-01-30T13:06:14.184Z,13.77
2024-01-30T13:08:35.958Z,13.87
2024-01-30T13:10:57.659Z,13.88
2024-01-30T13:13:20.839Z,13.78
2024-01-30T13:15:43.157Z,13.70
2024-01-30T13:18:06.477Z,13.56
2024-01-30T13:20:28.412Z,13.46
2024-01-30T13:22:53.062Z,13.29
2024-01-30T13:25:14.911Z,13.17
2024-01-30T13:27:40.070Z,13.10
2024-01-30T13:30:01.945Z,13.01
2024-01-30T13:32:23.670Z,12.88
2024-01-30T13:34:45.563Z,12.81
2024-01-30T13:37:07.436Z,12.77
2024-01-30T13:39:33.655Z,12.68
2024-01-30T13:41:58.244Z,12.61
2024-01-30T13:44:21.942Z,12.61
2024-01-30T13:46:44.673Z,12.61
2024-01-30T13:49:06.585Z,12.62
2024-01-30T13:51:29.169Z,12.59
2024-01-30T13:53:51.467Z,12.52
2024-01-30T13:56:13.255Z,12.51
2024-01-30T13:58:37.272Z,12.51
2024-01-30T14:00:59.112Z,12.53
2024-01-30T14:03:21.206Z,12.53
2024-01-30T14:05:42.973Z,12.48
2024-01-30T14:08:06.637Z,12.41
2024-01-30T14:10:28.504Z,12.42
2024-01-30T14:12:50.285Z,12.35
2024-01-30T14:15:20.142Z,12.25
2024-01-30T14:17:50.868Z,12.23
2024-01-30T14:20:13.076Z,12.18
2024-01-30T14:22:35.622Z,12.17
2024-01-30T14:24:57.641Z,12.12
2024-01-30T14:27:19.690Z,12.09
2024-01-30T14:29:43.554Z,12.09
2024-01-30T14:32:06.073Z,12.07
2024-01-30T14:34:28.441Z,12.07
2024-01-30T14:36:50.532Z,12.02
2024-01-30T14:39:12.285Z,12.00
2024-01-30T14:41:34.290Z,11.95
2024-01-30T14:43:56.313Z,11.90
2024-01-30T14:46:18.635Z,11.83
2024-01-30T14:48:40.413Z,11.73
2024-01-30T14:51:02.330Z,11.70
2024-01-30T14:53:24.079Z,11.65
2024-01-30T14:55:45.832Z,11.57
2024-01-30T14:58:07.792Z,11.49
2024-01-30T15:00:29.655Z,11.36
2024-01-30T15:02:51.440Z,11.25
2024-01-30T15:05:13.936Z,11.10
2024-01-30T15:07:39.990Z,11.00
2024-01-30T15:10:04.679Z,10.90
2024-01-30T15:12:26.681Z,10.83
2024-01-30T15:14:51.829Z,10.78
2024-01-30T15:17:13.724Z,10.72
2024-01-30T15:19:35.576Z,10.61
2024-01-30T15:21:57.478Z,10.54
2024-01-30T15:24:21.265Z,10.43
2024-01-30T15:26:43.390Z,10.38
2024-01-30T15:29:05.835Z,10.32
2024-01-30T15:31:27.640Z,10.27
2024-01-30T15:33:49.504Z,10.23
2024-01-30T15:36:14.513Z,10.21
2024-01-30T15:38:36.531Z,10.20
2024-01-30T15:40:59.936Z,10.13
2024-01-30T15:43:21.833Z,10.08
2024-01-30T15:45:43.531Z,10.10
2024-01-30T15:48:06.292Z,10.12
2024-01-30T15:50:28.058Z,10.08
2024-01-30T15:52:49.826Z,10.01
2024-01-30T15:55:13.236Z,10.01
2024-01-30T15:57:35.022Z,9.99
2024-01-30T15:59:57.129Z,9.98
2024-01-30T16:02:20.782Z,9.95
2024-01-30T16:04:42.712Z,10.00
2024-01-30T16:07:04.988Z,9.98
2024-01-30T16:09:26.998Z,9.96
2024-01-30T16:11:49.219Z,9.92
2024-01-30T16:14:11.146Z,9.92
2024-01-30T16:16:35.150Z,9.95
2024-01-30T16:18:57.126Z,9.94
2024-01-30T16:21:19.005Z,9.88
2024-01-30T16:23:41.032Z,9.88
2024-01-30T16:26:02.841Z,9.89
2024-01-30T16:28:29.802Z,9.86
2024-01-30T16:30:51.756Z,9.83
2024-01-30T16:33:13.661Z,9.83
2024-01-30T16:35:45.401Z,9.80
2024-01-30T16:38:08.859Z,9.76
2024-01-30T16:40:30.636Z,9.74
2024-01-30T16:42:52.386Z,9.68
2024-01-30T16:45:14.553Z,9.67
2024-01-30T16:47:36.492Z,9.66
2024-01-30T16:50:00.416Z,9.67
2024-01-30T16:52:23.074Z,9.69
2024-01-30T16:54:44.880Z,9.66
2024-01-30T16:57:06.648Z,9.64
2024-01-30T16:59:28.400Z,9.59
2024-01-30T17:01:50.355Z,9.55
2024-01-30T17:04:13.188Z,9.48
2024-01-30T17:06:34.973Z,9.42
2024-01-30T17:08:56.881Z,9.35
2024-01-30T17:11:19.312Z,9.33
2024-01-30T17:13:41.017Z,9.33
2024-01-30T17:16:03.889Z,9.26
2024-01-30T17:18:27.296Z,9.23
2024-01-30T17:20:49.048Z,9.20
2024-01-30T17:23:11.686Z,9.17
2024-01-30T17:25:35.154Z,9.12
2024-01-30T17:27:59.030Z,9.10
2024-01-30T17:30:24.641Z,9.11
2024-01-30T17:32:46.395Z,9.10
2024-01-30T17:37:30.731Z,9.09
2024-01-30T17:39:52.696Z,9.03
2024-01-30T17:42:15.200Z,9.03
2024-01-30T17:44:41.059Z,9.06
2024-01-30T17:47:03.115Z,9.04
2024-01-30T17:49:26.581Z,9.04
2024-01-30T17:51:49.019Z,9.03
2024-01-30T17:54:10.773Z,9.04
2024-01-30T17:56:32.587Z,9.04
2024-01-30T17:58:54.318Z,9.04
2024-01-30T18:01:16.398Z,9.04
2024-01-30T18:03:38.297Z,9.04
2024-01-30T18:06:01.102Z,9.07
2024-01-30T18:08:24.219Z,9.01
2024-01-30T18:10:46.215Z,9.02
2024-01-30T18:13:09.538Z,9.00
2024-01-30T18:15:31.605Z,8.99
2024-01-30T18:17:53.542Z,8.96
2024-01-30T18:20:15.439Z,8.92
2024-01-30T18:22:39.575Z,8.91
2024-01-30T18:25:01.383Z,8.85
2024-01-30T18:27:23.424Z,8.89
2024-01-30T18:29:45.108Z,8.87
2024-01-30T18:32:07.255Z,8.85
2024-01-30T18:34:29.131Z,8.84
2024-01-30T18:36:50.862Z,8.81
2024-01-30T18:39:12.757Z,8.82
2024-01-30T18:41:34.482Z,8.83
2024-01-30T18:43:56.318Z,8.83
2024-01-30T18:46:23.437Z,8.87
2024-01-30T18:48:46.963Z,8.86
2024-01-30T18:51:19.146Z,8.88
2024-01-30T18:53:40.916Z,8.84
2024-01-30T18:56:03.705Z,8.83
2024-01-30T18:58:25.810Z,8.82
2024-01-30T19:00:49.929Z,8.80
2024-01-30T19:03:11.908Z,8.82
2024-01-30T19:05:34.870Z,8.84
2024-01-30T19:07:56.696Z,8.79
2024-01-30T19:10:25.909Z,8.81
2024-01-30T19:12:54.540Z,8.85
2024-01-30T19:15:16.357Z,8.83
2024-01-30T19:17:38.508Z,8.82
2024-01-30T19:20:00.482Z,8.79
2024-01-30T19:22:22.418Z,8.79
2024-01-30T19:24:44.215Z,8.78
2024-01-30T19:27:05.969Z,8.79
2024-01-30T19:29:27.693Z,8.80
2024-01-30T19:31:52.419Z,8.82
2024-01-30T19:34:14.312Z,8.80
2024-01-30T19:36:37.192Z,8.77
2024-01-30T19:38:59.935Z,8.75
2024-01-30T19:41:21.678Z,8.75
2024-01-30T19:43:43.732Z,8.76
2024-01-30T19:46:05.737Z,8.73
2024-01-30T19:48:27.537Z,8.69
2024-01-30T19:50:49.287Z,8.69
2024-01-30T19:53:11.073Z,8.68
2024-01-30T19:55:33.059Z,8.69
2024-01-30T19:57:54.881Z,8.72
2024-01-30T20:00:17.017Z,8.68
2024-01-30T20:02:38.748Z,8.65
2024-01-30T20:05:00.858Z,8.66
2024-01-30T20:07:22.746Z,8.68
2024-01-30T20:09:44.867Z,8.68
2024-01-30T20:12:07.313Z,8.69
2024-01-30T20:14:30.592Z,8.69
2024-01-30T20:16:52.360Z,8.73
2024-01-30T20:19:14.348Z,8.71
2024-01-30T20:21:39.698Z,8.71
2024-01-30T20:24:01.729Z,8.72
2024-01-30T20:26:23.468Z,8.69
2024-01-30T20:28:45.228Z,8.72
2024-01-30T20:31:07.185Z,8.72
2024-01-30T20:33:29.069Z,8.69
2024-01-30T20:35:51.682Z,8.69
2024-01-30T20:38:14.818Z,8.66
2024-01-30T20:40:39.006Z,8.64
2024-01-30T20:43:00.953Z,8.61
2024-01-30T20:45:23.932Z,8.62
2024-01-30T20:47:45.769Z,8.61
2024-01-30T20:50:08.235Z,8.64
2024-01-30T20:52:30.158Z,8.63
2024-01-30T20:54:52.833Z,8.61
2024-01-30T20:57:14.677Z,8.60
2024-01-30T20:59:36.403Z,8.59
2024-01-30T21:01:58.175Z,8.57
2024-01-30T21:04:20.064Z,8.55
2024-01-30T21:06:41.913Z,8.52
2024-01-30T21:09:04.173Z,8.50
2024-01-30T21:11:25.896Z,8.50
2024-01-30T21:13:47.730Z,8.49
2024-01-30T21:16:10.674Z,8.50
2024-01-30T21:18:32.473Z,8.51
2024-01-30T21:20:55.947Z,8.49
2024-01-30T21:23:17.690Z,8.49
2024-01-30T21:25:39.492Z,8.49
2024-01-30T21:28:01.352Z,8.48
2024-01-30T21:30:23.050Z,8.45
2024-01-30T21:32:44.840Z,8.46
2024-01-30T21:35:07.706Z,8.45
2024-01-30T21:37:29.686Z,8.41
2024-01-30T21:39:51.554Z,8.38
2024-01-30T21:42:13.677Z,8.38
2024-01-30T21:44:35.426Z,8.34
2024-01-30T21:46:57.255Z,8.33
2024-01-30T21:49:19.067Z,8.33
2024-01-30T21:51:43.161Z,8.35
2024-01-30T21:54:04.942Z,8.37
2024-01-30T21:56:26.694Z,8.33
2024-01-30T21:58:51.644Z,8.32
2024-01-30T22:01:16.515Z,8.33
2024-01-30T22:03:40.180Z,8.33
2024-01-30T22:06:02.073Z,8.35
2024-01-30T22:08:23.897Z,8.33
2024-01-30T22:10:45.764Z,8.34
2024-01-30T22:13:07.684Z,8.33
2024-01-30T22:15:30.427Z,8.28
2024-01-30T22:17:52.307Z,8.30
2024-01-30T22:20:14.252Z,8.30
2024-01-30T22:22:36.644Z,8.30
2024-01-30T22:24:58.608Z,8.28
2024-01-30T22:27:20.445Z,8.27
2024-01-30T22:29:42.592Z,8.27
2024-01-30T22:32:05.573Z,8.28
2024-01-30T22:34:28.787Z,8.29
2024-01-30T22:36:50.679Z,8.27
2024-01-30T22:39:12.360Z,8.27
2024-01-30T22:41:34.100Z,8.26
2024-01-30T22:43:56.144Z,8.26
2024-01-30T22:46:20.542Z,8.28
2024-01-30T22:48:42.858Z,8.29
2024-01-30T22:51:04.928Z,8.31
2024-01-30T22:53:26.737Z,8.32
2024-01-30T22:55:48.489Z,8.33
2024-01-30T22:58:10.346Z,8.35
2024-01-30T23:00:32.824Z,8.34
2024-01-30T23:02:55.701Z,8.34
2024-01-30T23:05:17.495Z,8.29
2024-01-30T23:07:41.249Z,8.25
2024-01-30T23:10:04.204Z,8.25
2024-01-30T23:12:26.027Z,8.26
2024-01-30T23:14:47.875Z,8.23
2024-01-30T23:17:09.699Z,8.19
2024-01-30T23:19:31.530Z,8.16
2024-01-30T23:21:53.456Z,8.14
2024-01-30T23:24:15.220Z,8.12
2024-01-30T23:26:42.100Z,8.12
2024-01-30T23:29:03.943Z,8.10
2024-01-30T23:31:25.765Z,8.10
2024-01-30T23:33:48.949Z,8.10
2024-01-30T23:36:11.955Z,8.09
2024-01-30T23:38:33.937Z,8.05
2024-01-30T23:40:57.088Z,8.05
2024-01-30T23:43:19.501Z,8.05
2024-01-30T23:45:41.379Z,8.06
2024-01-30T23:48:03.346Z,8.06
2024-01-30T23:50:25.238Z,8.06
2024-01-30T23:52:47.538Z,8.06
2024-01-30T23:55:10.402Z,8.01
2024-01-30T23:57:32.539Z,7.98
2024-01-30T23:59:55.260Z,7.97
